createdAt,value
2022-07-30T00:00:38.188Z,19.52
2022-07-30T00:03:07.663Z,19.47
2022-07-30T00:05:35.938Z,19.44
2022-07-30T00:08:04.185Z,19.41
2022-07-30T00:10:32.510Z,19.40
2022-07-30T00:13:00.655Z,19.38
2022-07-30T00:15:28.800Z,19.32
2022-07-30T00:17:56.908Z,19.34
2022-07-30T00:20:27.991Z,19.28
2022-07-30T00:22:56.691Z,19.27
2022-07-30T00:25:24.852Z,19.24
2022-07-30T00:27:52.939Z,19.26
2022-07-30T00:30:21.340Z,19.26
2022-07-30T00:32:49.451Z,19.27
2022-07-30T00:35:17.827Z,19.21
2022-07-30T00:37:47.792Z,19.19
2022-07-30T00:40:15.853Z,19.17
2022-07-30T00:42:46.632Z,19.22
2022-07-30T00:45:16.035Z,19.22
2022-07-30T00:47:44.985Z,19.26
2022-07-30T00:50:14.616Z,19.16
2022-07-30T00:52:43.278Z,19.17
2022-07-30T00:55:14.940Z,19.18
2022-07-30T00:57:43.699Z,19.18
2022-07-30T01:00:15.366Z,19.16
2022-07-30T01:02:43.482Z,19.12
2022-07-30T01:05:12.422Z,19.16
2022-07-30T01:07:40.742Z,19.17
2022-07-30T01:10:11.372Z,19.17
2022-07-30T01:12:41.619Z,19.13
2022-07-30T01:15:11.762Z,19.15
2022-07-30T01:17:40.684Z,19.09
2022-07-30T01:20:13.407Z,19.07
2022-07-30T01:22:51.756Z,19.04
2022-07-30T01:25:29.728Z,19.02
2022-07-30T01:28:03.562Z,19.03
2022-07-30T01:30:35.310Z,18.93
2022-07-30T01:33:05.680Z,18.94
2022-07-30T01:35:35.890Z,18.92
2022-07-30T01:38:06.292Z,18.92
2022-07-30T01:40:36.900Z,18.94
2022-07-30T01:43:09.266Z,18.91
2022-07-30T01:45:42.314Z,18.95
2022-07-30T01:48:15.994Z,18.91
2022-07-30T01:50:45.473Z,18.85
2022-07-30T01:53:17.882Z,18.92
2022-07-30T01:55:47.688Z,18.74
2022-07-30T01:58:22.341Z,18.76
2022-07-30T02:00:58.398Z,18.71
2022-07-30T02:03:29.614Z,18.69
2022-07-30T02:06:02.603Z,18.63
2022-07-30T02:08:40.098Z,18.59
2022-07-30T02:11:10.582Z,18.59
2022-07-30T02:13:42.986Z,18.53
2022-07-30T02:16:17.687Z,18.47
2022-07-30T02:18:56.907Z,18.46
2022-07-30T02:21:36.680Z,18.51
2022-07-30T02:24:09.962Z,18.48
2022-07-30T02:26:40.140Z,18.51
2022-07-30T02:29:11.821Z,18.47
2022-07-30T02:31:42.886Z,18.48
2022-07-30T02:34:14.078Z,18.41
2022-07-30T02:36:44.273Z,18.45
2022-07-30T02:39:14.603Z,18.40
2022-07-30T02:41:49.522Z,18.41
2022-07-30T02:44:22.515Z,18.44
2022-07-30T02:46:52.089Z,18.38
2022-07-30T02:49:40.880Z,18.40
2022-07-30T02:52:13.653Z,18.35
2022-07-30T02:54:43.613Z,18.37
2022-07-30T02:57:12.105Z,18.40
2022-07-30T02:59:42.640Z,18.34
2022-07-30T03:02:12.905Z,18.37
2022-07-30T03:04:44.424Z,18.39
2022-07-30T03:07:17.881Z,18.37
2022-07-30T03:09:50.743Z,18.43
2022-07-30T03:12:20.605Z,18.43
2022-07-30T03:14:50.560Z,18.41
2022-07-30T03:17:20.893Z,18.36
2022-07-30T03:19:50.259Z,18.36
2022-07-30T03:22:20.943Z,18.37
2022-07-30T03:24:50.407Z,18.42
2022-07-30T03:27:19.343Z,18.44
2022-07-30T03:29:49.301Z,18.41
2022-07-30T03:32:19.615Z,18.48
2022-07-30T03:34:55.148Z,18.35
2022-07-30T03:37:27.507Z,18.39
2022-07-30T03:39:58.106Z,18.36
2022-07-30T03:42:28.625Z,18.33
2022-07-30T03:44:57.756Z,18.32
2022-07-30T03:47:28.286Z,18.32
2022-07-30T03:49:56.555Z,18.29
2022-07-30T03:52:25.907Z,18.32
2022-07-30T03:54:57.313Z,18.29
2022-07-30T03:57:44.105Z,18.30
2022-07-30T04:00:15.461Z,18.20
2022-07-30T04:02:51.147Z,18.22
2022-07-30T04:05:37.445Z,18.16
2022-07-30T04:08:09.203Z,18.15
2022-07-30T04:10:37.621Z,18.12
2022-07-30T04:13:43.884Z,18.10
2022-07-30T04:16:39.518Z,18.11
2022-07-30T04:19:09.991Z,18.06
2022-07-30T04:21:41.411Z,17.98
2022-07-30T04:24:12.696Z,17.97
2022-07-30T04:26:40.974Z,18.00
2022-07-30T04:29:13.542Z,18.00
2022-07-30T04:31:46.195Z,17.90
2022-07-30T04:34:34.382Z,17.96
2022-07-30T04:37:03.953Z,17.91
2022-07-30T04:39:32.434Z,17.86
2022-07-30T04:42:00.418Z,17.86
2022-07-30T04:44:28.507Z,17.89
2022-07-30T04:47:23.491Z,17.83
2022-07-30T04:50:11.325Z,17.84
2022-07-30T04:52:40.432Z,17.86
2022-07-30T04:55:12.178Z,17.82
2022-07-30T04:57:43.595Z,17.82
2022-07-30T05:00:12.884Z,17.82
2022-07-30T05:02:43.919Z,17.82
2022-07-30T05:05:16.126Z,17.87
2022-07-30T05:07:46.911Z,17.86
2022-07-30T05:10:15.856Z,17.84
2022-07-30T05:12:44.321Z,17.83
2022-07-30T05:15:14.188Z,17.83
2022-07-30T05:17:42.464Z,17.84
2022-07-30T05:20:13.242Z,17.85
2022-07-30T05:22:59.729Z,17.87
2022-07-30T05:25:27.989Z,17.92
2022-07-30T05:28:02.729Z,17.90
2022-07-30T05:30:30.955Z,17.95
2022-07-30T05:33:03.630Z,17.97
2022-07-30T05:35:39.783Z,18.01
2022-07-30T05:38:07.922Z,18.06
2022-07-30T05:40:47.564Z,18.12
2022-07-30T05:43:34.133Z,18.19
2022-07-30T05:46:02.577Z,18.24
2022-07-30T05:48:31.429Z,18.27
2022-07-30T05:51:03.432Z,18.33
2022-07-30T05:53:31.606Z,18.35
2022-07-30T05:56:25.771Z,18.44
2022-07-30T05:59:02.070Z,18.45
2022-07-30T06:01:52.670Z,18.50
2022-07-30T06:04:27.429Z,18.59
2022-07-30T06:07:01.731Z,18.54
2022-07-30T06:09:36.891Z,18.55
2022-07-30T06:12:07.017Z,18.55
2022-07-30T06:14:35.720Z,18.59
2022-07-30T06:17:05.250Z,18.65
2022-07-30T06:19:53.439Z,18.67
2022-07-30T06:22:26.235Z,18.69
2022-07-30T06:24:55.530Z,18.77
2022-07-30T06:27:31.317Z,18.78
2022-07-30T06:30:00.798Z,18.85
2022-07-30T06:32:29.267Z,18.88
2022-07-30T06:35:02.625Z,18.93
2022-07-30T06:38:06.082Z,19.05
2022-07-30T06:40:25.044Z,19.09
2022-07-30T06:43:13.368Z,19.18
2022-07-30T06:45:51.627Z,19.25
2022-07-30T06:48:25.405Z,19.27
2022-07-30T06:50:54.409Z,19.34
2022-07-30T06:53:23.886Z,19.37
2022-07-30T06:56:10.968Z,19.47
2022-07-30T06:58:45.962Z,19.55
2022-07-30T07:01:33.134Z,19.62
2022-07-30T07:04:02.120Z,19.66
2022-07-30T07:06:30.374Z,19.65
2022-07-30T07:09:00.846Z,19.77
2022-07-30T07:11:39.617Z,19.96
2022-07-30T07:14:11.194Z,20.06
2022-07-30T07:16:39.458Z,20.17
2022-07-30T07:19:59.569Z,20.29
2022-07-30T07:22:18.880Z,20.43
2022-07-30T07:24:49.107Z,20.40
2022-07-30T07:27:22.446Z,20.46
2022-07-30T07:30:01.187Z,20.52
2022-07-30T07:32:31.716Z,20.56
2022-07-30T07:35:00.255Z,20.54
2022-07-30T07:37:29.198Z,20.67
2022-07-30T07:39:58.800Z,20.87
2022-07-30T07:42:27.814Z,20.87
2022-07-30T07:44:55.964Z,20.98
2022-07-30T07:47:24.423Z,21.06
2022-07-30T07:50:07.889Z,21.25
2022-07-30T07:52:36.106Z,21.37
2022-07-30T07:55:07.410Z,21.40
2022-07-30T07:57:40.159Z,21.24
2022-07-30T08:00:09.710Z,21.46
2022-07-30T08:02:47.820Z,21.55
2022-07-30T08:05:17.030Z,21.56
2022-07-30T08:07:51.646Z,21.67
2022-07-30T08:10:39.723Z,21.66
2022-07-30T08:13:48.661Z,21.64
2022-07-30T08:16:33.411Z,21.71
2022-07-30T08:19:22.221Z,21.81
2022-07-30T08:22:12.782Z,21.78
2022-07-30T08:24:41.834Z,21.91
2022-07-30T08:27:11.636Z,22.01
2022-07-30T08:29:39.768Z,22.08
2022-07-30T08:32:08.279Z,21.97
2022-07-30T08:34:39.186Z,21.97
2022-07-30T08:37:07.639Z,22.01
2022-07-30T08:39:36.870Z,22.10
2022-07-30T08:42:06.322Z,22.03
2022-07-30T08:44:36.664Z,22.12
2022-07-30T08:47:08.728Z,22.33
2022-07-30T08:50:01.595Z,22.36
2022-07-30T08:52:34.043Z,22.49
2022-07-30T08:55:02.666Z,22.62
2022-07-30T08:57:31.495Z,22.59
2022-07-30T09:00:02.102Z,22.60
2022-07-30T09:02:33.478Z,22.78
2022-07-30T09:05:06.625Z,22.64
2022-07-30T09:07:35.830Z,22.56
2022-07-30T09:10:06.611Z,22.90
2022-07-30T09:12:37.827Z,23.15
2022-07-30T09:15:11.281Z,23.17
2022-07-30T09:17:54.104Z,23.40
2022-07-30T09:20:25.095Z,23.56
2022-07-30T09:22:57.308Z,23.72
2022-07-30T09:25:46.113Z,23.69
2022-07-30T09:28:37.712Z,23.75
2022-07-30T09:34:34.117Z,23.99
2022-07-30T09:37:17.627Z,23.11
2022-07-30T09:40:13.749Z,23.14
2022-07-30T09:43:07.187Z,23.44
2022-07-30T09:45:37.270Z,23.43
2022-07-30T09:48:22.624Z,23.42
2022-07-30T09:50:52.439Z,23.63
2022-07-30T09:53:22.502Z,23.46
2022-07-30T09:55:52.205Z,23.44
2022-07-30T09:58:27.300Z,23.58
2022-07-30T10:00:59.811Z,23.84
2022-07-30T10:03:59.645Z,23.75
2022-07-30T10:06:48.595Z,23.93
2022-07-30T10:09:31.580Z,23.87
2022-07-30T10:12:02.679Z,24.26
2022-07-30T10:14:35.223Z,24.38
2022-07-30T10:17:13.118Z,24.14
2022-07-30T10:19:45.282Z,24.19
2022-07-30T10:22:35.807Z,24.08
2022-07-30T10:25:30.650Z,23.78
2022-07-30T10:28:19.005Z,24.17
2022-07-30T10:30:50.507Z,24.38
2022-07-30T10:33:35.171Z,24.54
2022-07-30T10:36:13.064Z,24.46
2022-07-30T10:38:52.660Z,24.75
2022-07-30T10:41:44.495Z,24.91
2022-07-30T10:44:42.452Z,24.90
2022-07-30T10:47:18.325Z,24.87
2022-07-30T10:50:05.474Z,25.12
2022-07-30T10:52:52.809Z,25.35
2022-07-30T10:55:37.285Z,25.26
2022-07-30T10:58:09.773Z,25.36
2022-07-30T11:01:01.265Z,25.29
2022-07-30T11:03:41.423Z,25.43
2022-07-30T11:06:27.308Z,25.56
2022-07-30T11:08:58.069Z,25.76
2022-07-30T11:12:01.276Z,25.85
2022-07-30T11:15:06.312Z,25.71
2022-07-30T11:18:12.320Z,25.68
2022-07-30T11:20:48.323Z,24.72
2022-07-30T11:23:40.692Z,24.76
2022-07-30T11:26:14.171Z,25.25
2022-07-30T11:28:52.306Z,25.33
2022-07-30T11:31:56.781Z,25.40
2022-07-30T11:34:31.003Z,25.01
2022-07-30T11:37:19.076Z,24.59
2022-07-30T11:40:14.116Z,24.78
2022-07-30T11:42:44.998Z,25.01
2022-07-30T11:45:26.881Z,25.25
2022-07-30T11:47:57.577Z,25.45
2022-07-30T11:50:28.310Z,25.43
2022-07-30T11:52:59.464Z,25.28
2022-07-30T11:55:30.364Z,25.35
2022-07-30T11:58:01.413Z,25.41
2022-07-30T12:00:40.129Z,25.42
2022-07-30T12:03:17.378Z,25.35
2022-07-30T12:05:51.134Z,25.33
2022-07-30T12:08:31.603Z,25.32
2022-07-30T12:11:05.134Z,24.91
2022-07-30T12:13:44.971Z,25.04
2022-07-30T12:16:17.604Z,24.96
2022-07-30T12:18:46.761Z,25.00
2022-07-30T12:21:16.273Z,24.90
2022-07-30T12:23:55.515Z,24.71
2022-07-30T12:26:26.936Z,24.65
2022-07-30T12:28:58.990Z,24.51
2022-07-30T12:31:29.272Z,24.68
2022-07-30T12:33:58.305Z,24.71
2022-07-30T12:36:33.800Z,24.85
2022-07-30T12:39:03.954Z,25.02
2022-07-30T12:41:46.318Z,25.16
2022-07-30T12:44:37.176Z,25.40
2022-07-30T12:47:07.453Z,25.62
2022-07-30T12:49:39.392Z,25.68
2022-07-30T12:52:27.857Z,25.57
2022-07-30T12:55:07.066Z,25.84
2022-07-30T12:58:02.901Z,26.06
2022-07-30T13:00:48.218Z,26.25
2022-07-30T13:03:22.114Z,26.03
2022-07-30T13:05:55.226Z,26.00
2022-07-30T13:08:48.725Z,26.20
2022-07-30T13:11:17.573Z,25.92
2022-07-30T13:13:46.269Z,26.04
2022-07-30T13:16:16.641Z,26.04
2022-07-30T13:18:45.006Z,25.92
2022-07-30T13:21:13.753Z,26.36
2022-07-30T13:23:43.225Z,26.55
2022-07-30T13:26:12.402Z,26.62
2022-07-30T13:28:40.766Z,26.55
2022-07-30T13:31:09.264Z,26.71
2022-07-30T13:33:40.222Z,26.58
2022-07-30T13:36:09.307Z,26.69
2022-07-30T13:38:37.766Z,26.74
2022-07-30T13:41:06.696Z,26.73
2022-07-30T13:43:35.959Z,26.56
2022-07-30T13:46:05.150Z,26.39
2022-07-30T13:48:34.196Z,26.32
2022-07-30T13:51:05.347Z,26.41
2022-07-30T13:53:33.800Z,26.26
2022-07-30T13:56:03.671Z,26.24
2022-07-30T13:58:36.256Z,26.22
2022-07-30T14:01:07.272Z,26.31
2022-07-30T14:03:36.480Z,26.41
2022-07-30T14:06:10.811Z,26.35
2022-07-30T14:08:40.628Z,26.50
2022-07-30T14:11:09.482Z,26.53
2022-07-30T14:13:38.003Z,26.51
2022-07-30T14:16:22.752Z,26.73
2022-07-30T14:18:55.984Z,26.82
2022-07-30T14:21:26.425Z,26.94
2022-07-30T14:23:55.064Z,26.83
2022-07-30T14:26:23.789Z,26.78
2022-07-30T14:28:52.012Z,26.83
2022-07-30T14:31:20.268Z,26.85
2022-07-30T14:33:48.831Z,26.60
2022-07-30T14:36:17.812Z,26.78
2022-07-30T14:38:47.712Z,26.76
2022-07-30T14:41:19.262Z,26.56
2022-07-30T14:43:48.606Z,26.81
2022-07-30T14:46:17.465Z,26.65
2022-07-30T14:48:48.231Z,26.81
2022-07-30T14:51:24.174Z,26.76
2022-07-30T14:53:55.855Z,26.81
2022-07-30T14:56:26.343Z,26.88
2022-07-30T14:58:55.168Z,26.85
2022-07-30T15:01:23.350Z,26.94
2022-07-30T15:03:51.776Z,27.04
2022-07-30T15:06:20.141Z,26.95
2022-07-30T15:08:48.667Z,26.83
2022-07-30T15:11:18.223Z,26.52
2022-07-30T15:13:50.822Z,26.66
2022-07-30T15:16:20.160Z,26.72
2022-07-30T15:18:48.525Z,26.77
2022-07-30T15:21:17.036Z,26.61
2022-07-30T15:23:45.498Z,26.69
2022-07-30T15:26:13.819Z,26.24
2022-07-30T15:28:43.575Z,26.40
2022-07-30T15:31:12.000Z,26.34
2022-07-30T15:33:43.250Z,26.46
2022-07-30T15:36:11.869Z,26.52
2022-07-30T15:38:40.417Z,26.55
2022-07-30T15:41:13.265Z,26.43
2022-07-30T15:43:43.357Z,26.46
2022-07-30T15:46:11.700Z,26.46
2022-07-30T15:48:40.025Z,26.47
2022-07-30T15:51:08.486Z,26.54
2022-07-30T15:53:36.710Z,26.49
2022-07-30T15:56:05.420Z,26.53
2022-07-30T15:58:34.006Z,26.57
2022-07-30T16:01:05.456Z,26.49
2022-07-30T16:03:33.549Z,26.36
2022-07-30T16:06:01.666Z,25.95
2022-07-30T16:08:29.990Z,25.97
2022-07-30T16:10:59.310Z,26.19
2022-07-30T16:13:27.621Z,26.30
2022-07-30T16:15:55.805Z,26.37
2022-07-30T16:18:25.734Z,26.39
2022-07-30T16:20:54.712Z,26.36
2022-07-30T16:23:23.065Z,26.41
2022-07-30T16:25:51.339Z,26.44
2022-07-30T16:28:19.710Z,26.53
2022-07-30T16:30:51.197Z,26.30
2022-07-30T16:33:20.777Z,26.47
2022-07-30T16:35:51.226Z,26.24
2022-07-30T16:38:20.882Z,26.25
2022-07-30T16:40:49.283Z,26.31
2022-07-30T16:43:19.858Z,26.43
2022-07-30T16:45:50.661Z,26.48
2022-07-30T16:48:19.417Z,26.52
2022-07-30T16:50:48.046Z,26.37
2022-07-30T16:53:18.173Z,26.30
2022-07-30T16:55:47.834Z,26.29
2022-07-30T16:58:16.267Z,26.33
2022-07-30T17:00:44.821Z,26.17
2022-07-30T17:03:20.067Z,26.15
2022-07-30T17:05:49.586Z,26.22
2022-07-30T17:08:19.375Z,26.22
2022-07-30T17:10:53.964Z,26.19
2022-07-30T17:13:22.345Z,26.23
2022-07-30T17:15:50.729Z,26.23
2022-07-30T17:18:20.662Z,26.05
2022-07-30T17:20:49.117Z,26.07
2022-07-30T17:23:17.520Z,26.09
2022-07-30T17:25:47.204Z,26.10
2022-07-30T17:28:15.575Z,26.07
2022-07-30T17:30:43.796Z,25.99
2022-07-30T17:33:12.371Z,26.13
2022-07-30T17:35:40.559Z,26.09
2022-07-30T17:38:08.830Z,25.70
2022-07-30T17:40:37.069Z,25.65
2022-07-30T17:43:07.854Z,25.72
2022-07-30T17:45:38.518Z,25.83
2022-07-30T17:48:07.958Z,25.79
2022-07-30T17:50:36.234Z,25.76
2022-07-30T17:53:05.764Z,25.78
2022-07-30T17:55:35.176Z,25.62
2022-07-30T17:58:03.542Z,25.66
2022-07-30T18:00:34.880Z,25.65
2022-07-30T18:03:06.971Z,25.64
2022-07-30T18:05:35.531Z,25.65
2022-07-30T18:08:03.758Z,25.67
2022-07-30T18:10:32.303Z,25.68
2022-07-30T18:13:25.980Z,25.67
2022-07-30T18:15:50.467Z,25.58
2022-07-30T18:18:18.822Z,25.57
2022-07-30T18:20:48.188Z,25.60
2022-07-30T18:23:19.268Z,25.63
2022-07-30T18:25:53.375Z,25.54
2022-07-30T18:28:23.074Z,25.47
2022-07-30T18:30:53.178Z,25.42
2022-07-30T18:33:21.893Z,25.44
2022-07-30T18:35:50.253Z,25.39
2022-07-30T18:38:18.765Z,25.38
2022-07-30T18:40:57.861Z,25.46
2022-07-30T18:43:27.760Z,25.50
2022-07-30T18:45:58.037Z,25.50
2022-07-30T18:48:26.895Z,25.53
2022-07-30T18:50:55.417Z,25.50
2022-07-30T18:53:24.645Z,25.45
2022-07-30T18:55:56.544Z,25.26
2022-07-30T18:58:25.205Z,25.35
2022-07-30T19:00:57.926Z,25.35
2022-07-30T19:03:28.109Z,25.35
2022-07-30T19:05:56.743Z,25.31
2022-07-30T19:08:25.292Z,25.12
2022-07-30T19:10:54.648Z,25.20
2022-07-30T19:13:23.551Z,25.13
2022-07-30T19:15:51.734Z,25.17
2022-07-30T19:18:21.706Z,25.09
2022-07-30T19:20:54.507Z,24.97
2022-07-30T19:23:25.245Z,24.99
2022-07-30T19:25:53.569Z,24.89
2022-07-30T19:28:22.665Z,24.96
2022-07-30T19:30:51.232Z,24.87
2022-07-30T19:33:19.559Z,24.91
2022-07-30T19:35:50.094Z,24.90
2022-07-30T19:38:21.986Z,24.89
2022-07-30T19:40:52.684Z,24.88
2022-07-30T19:43:24.060Z,24.83
2022-07-30T19:45:53.241Z,24.82
2022-07-30T19:48:29.046Z,24.75
2022-07-30T19:51:13.661Z,24.67
2022-07-30T19:53:54.491Z,24.61
2022-07-30T19:56:24.271Z,24.56
2022-07-30T19:58:53.604Z,24.60
2022-07-30T20:01:23.027Z,24.55
2022-07-30T20:04:09.053Z,24.14
2022-07-30T20:06:47.116Z,24.37
2022-07-30T20:09:16.328Z,24.39
2022-07-30T20:11:47.660Z,24.35
2022-07-30T20:14:16.428Z,24.34
2022-07-30T20:16:45.495Z,24.34
2022-07-30T20:19:15.692Z,24.16
2022-07-30T20:22:06.981Z,24.17
2022-07-30T20:24:34.386Z,24.22
2022-07-30T20:27:35.497Z,24.08
2022-07-30T20:29:51.592Z,24.16
2022-07-30T20:32:22.201Z,24.12
2022-07-30T20:34:51.271Z,24.06
2022-07-30T20:37:22.724Z,24.12
2022-07-30T20:39:51.278Z,24.05
2022-07-30T20:42:19.484Z,24.11
2022-07-30T20:44:53.463Z,23.96
2022-07-30T20:47:38.071Z,24.03
2022-07-30T20:50:09.372Z,23.96
2022-07-30T20:52:40.502Z,23.97
2022-07-30T20:55:10.073Z,23.89
2022-07-30T20:57:56.754Z,23.77
2022-07-30T21:00:29.826Z,23.78
2022-07-30T21:02:57.987Z,23.81
2022-07-30T21:05:31.814Z,23.76
2022-07-30T21:08:01.559Z,23.79
2022-07-30T21:10:29.892Z,23.85
2022-07-30T21:13:03.540Z,23.86
2022-07-30T21:15:33.198Z,23.91
2022-07-30T21:18:02.095Z,23.88
2022-07-30T21:20:32.046Z,23.92
2022-07-30T21:23:11.470Z,23.92
2022-07-30T21:26:01.480Z,23.85
2022-07-30T21:28:29.310Z,23.84
2022-07-30T21:30:57.781Z,23.90
2022-07-30T21:33:31.035Z,23.86
2022-07-30T21:36:00.058Z,23.81
2022-07-30T21:38:30.559Z,23.84
2022-07-30T21:41:00.399Z,23.79
2022-07-30T21:43:30.622Z,23.81
2022-07-30T21:46:03.700Z,23.82
2022-07-30T21:48:35.400Z,23.78
2022-07-30T21:51:03.674Z,23.67
2022-07-30T21:53:45.074Z,23.72
2022-07-30T21:56:15.861Z,23.57
2022-07-30T21:58:45.170Z,23.46
2022-07-30T22:01:16.998Z,23.45
2022-07-30T22:04:01.109Z,23.37
2022-07-30T22:06:36.654Z,23.37
2022-07-30T22:09:19.323Z,23.28
2022-07-30T22:12:01.451Z,23.23
2022-07-30T22:14:30.092Z,23.17
2022-07-30T22:17:00.454Z,23.13
2022-07-30T22:19:28.611Z,23.09
2022-07-30T22:21:56.908Z,23.13
2022-07-30T22:24:30.336Z,23.03
2022-07-30T22:27:01.649Z,22.99
2022-07-30T22:29:38.254Z,22.97
2022-07-30T22:32:08.005Z,22.93
2022-07-30T22:34:36.304Z,22.88
2022-07-30T22:37:04.431Z,22.87
2022-07-30T22:39:50.574Z,22.85
2022-07-30T22:42:20.983Z,22.83
2022-07-30T22:44:54.759Z,22.79
2022-07-30T22:47:50.783Z,22.78
2022-07-30T22:50:12.953Z,22.74
2022-07-30T22:52:48.997Z,22.70
2022-07-30T22:55:24.290Z,22.73
2022-07-30T22:57:53.031Z,22.70
2022-07-30T23:00:27.285Z,22.65
2022-07-30T23:02:57.629Z,22.65
2022-07-30T23:05:26.417Z,22.58
2022-07-30T23:07:55.401Z,22.61
2022-07-30T23:10:25.725Z,22.59
2022-07-30T23:12:58.395Z,22.56
2022-07-30T23:15:26.584Z,22.39
2022-07-30T23:17:54.615Z,22.42
2022-07-30T23:20:22.984Z,22.41
2022-07-30T23:22:51.577Z,22.38
2022-07-30T23:25:19.903Z,22.39
2022-07-30T23:27:49.287Z,22.40
2022-07-30T23:30:17.383Z,22.37
2022-07-30T23:32:45.690Z,22.38
2022-07-30T23:35:13.716Z,22.26
2022-07-30T23:37:48.416Z,22.28
2022-07-30T23:40:18.677Z,22.30
2022-07-30T23:42:47.344Z,22.30
2022-07-30T23:45:16.869Z,22.25
2022-07-30T23:48:01.642Z,22.25
2022-07-30T23:50:32.551Z,22.25
2022-07-30T23:53:01.062Z,22.17
2022-07-30T23:55:29.427Z,22.24
2022-07-30T23:57:58.026Z,22.25
